createdAt,value
2022-09-12T00:00:48.997Z,76.70
2022-09-12T00:03:16.667Z,76.90
2022-09-12T00:05:47.848Z,77.00
2022-09-12T00:08:15.456Z,77.00
2022-09-12T00:10:43.977Z,76.70
2022-09-12T00:13:11.898Z,76.50
2022-09-12T00:15:43.680Z,76.40
2022-09-12T00:18:16.725Z,76.40
2022-09-12T00:20:47.452Z,76.40
2022-09-12T00:23:15.307Z,76.20
2022-09-12T00:25:44.700Z,76.10
2022-09-12T00:28:13.791Z,76.00
2022-09-12T00:30:42.987Z,75.80
2022-09-12T00:33:11.274Z,75.90
2022-09-12T00:35:44.139Z,76.10
2022-09-12T00:38:13.017Z,76.10
2022-09-12T00:40:41.912Z,76.00
2022-09-12T00:43:33.659Z,75.90
2022-09-12T00:46:39.762Z,76.00
2022-09-12T00:49:29.694Z,76.10
2022-09-12T00:52:07.431Z,76.00
2022-09-12T00:54:52.808Z,76.00
2022-09-12T00:57:25.174Z,76.00
2022-09-12T01:00:15.125Z,75.80
2022-09-12T01:02:58.460Z,75.80
2022-09-12T01:05:27.830Z,75.80
2022-09-12T01:07:56.320Z,75.80
2022-09-12T01:10:24.555Z,75.80
2022-09-12T01:12:51.975Z,75.90
2022-09-12T01:15:19.212Z,75.80
2022-09-12T01:18:11.360Z,75.70
2022-09-12T01:20:51.787Z,75.80
2022-09-12T01:23:31.053Z,76.00
2022-09-12T01:26:26.446Z,75.80
2022-09-12T01:29:28.811Z,75.70
2022-09-12T01:32:05.179Z,75.90
2022-09-12T01:34:45.205Z,76.20
2022-09-12T01:37:28.416Z,76.30
2022-09-12T01:40:14.532Z,76.40
2022-09-12T01:42:49.769Z,76.40
2022-09-12T01:45:26.588Z,76.50
2022-09-12T01:48:14.968Z,76.60
2022-09-12T01:50:50.582Z,76.70
2022-09-12T01:53:27.323Z,76.60
2022-09-12T01:56:00.912Z,76.80
2022-09-12T01:58:35.343Z,76.30
2022-09-12T02:01:07.863Z,76.30
2022-09-12T02:03:46.531Z,76.40
2022-09-12T02:06:31.825Z,76.60
2022-09-12T02:09:09.351Z,76.80
2022-09-12T02:11:41.899Z,76.70
2022-09-12T02:14:16.574Z,76.70
2022-09-12T02:16:51.050Z,76.70
2022-09-12T02:19:22.266Z,76.90
2022-09-12T02:21:58.605Z,76.80
2022-09-12T02:24:31.703Z,76.90
2022-09-12T02:27:14.745Z,76.90
2022-09-12T02:29:44.553Z,77.00
2022-09-12T02:32:29.879Z,77.10
2022-09-12T02:35:13.542Z,77.20
2022-09-12T02:38:00.027Z,77.20
2022-09-12T02:40:28.840Z,77.20
2022-09-12T02:42:56.879Z,77.20
2022-09-12T02:45:24.501Z,77.20
2022-09-12T02:48:27.036Z,77.10
2022-09-12T02:50:54.803Z,77.10
2022-09-12T02:53:23.112Z,77.10
2022-09-12T02:55:51.384Z,77.20
2022-09-12T02:58:23.583Z,77.10
2022-09-12T03:01:03.379Z,77.10
2022-09-12T03:03:53.621Z,77.20
2022-09-12T03:06:45.721Z,77.00
2022-09-12T03:09:32.606Z,77.00
2022-09-12T03:12:14.895Z,77.10
2022-09-12T03:15:01.547Z,77.30
2022-09-12T03:17:50.674Z,77.10
2022-09-12T03:20:32.959Z,76.70
2022-09-12T03:23:06.132Z,76.50
2022-09-12T03:25:43.375Z,77.20
2022-09-12T03:28:17.267Z,76.30
2022-09-12T03:30:48.094Z,76.30
2022-09-12T03:33:23.540Z,76.30
2022-09-12T03:35:52.247Z,77.20
2022-09-12T03:38:19.673Z,76.50
2022-09-12T03:40:50.299Z,76.30
2022-09-12T03:43:20.148Z,76.30
2022-09-12T03:45:51.923Z,76.40
2022-09-12T03:48:19.654Z,76.60
2022-09-12T03:50:46.946Z,76.60
2022-09-12T03:53:17.197Z,76.80
2022-09-12T03:55:44.808Z,77.00
2022-09-12T03:58:12.512Z,77.10
2022-09-12T04:00:40.042Z,77.40
2022-09-12T04:03:07.472Z,77.30
2022-09-12T04:05:35.857Z,77.30
2022-09-12T04:08:03.303Z,77.40
2022-09-12T04:10:31.601Z,77.70
2022-09-12T04:12:59.119Z,77.80
2022-09-12T04:15:26.476Z,77.90
2022-09-12T04:17:53.956Z,77.80
2022-09-12T04:20:21.501Z,77.80
2022-09-12T04:22:48.868Z,77.70
2022-09-12T04:25:17.209Z,77.70
2022-09-12T04:27:44.615Z,77.60
2022-09-12T04:30:12.644Z,77.70
2022-09-12T04:32:40.876Z,77.80
2022-09-12T04:35:08.539Z,77.70
2022-09-12T04:37:36.222Z,77.80
2022-09-12T04:40:04.124Z,77.60
2022-09-12T04:42:31.511Z,77.40
2022-09-12T04:44:58.730Z,77.20
2022-09-12T04:47:26.031Z,77.10
2022-09-12T04:49:53.923Z,77.00
2022-09-12T04:52:22.915Z,77.10
2022-09-12T04:54:50.551Z,77.10
2022-09-12T04:57:18.486Z,77.00
2022-09-12T04:59:45.876Z,77.00
2022-09-12T05:02:14.384Z,76.90
2022-09-12T05:04:42.020Z,76.90
2022-09-12T05:07:09.436Z,76.80
2022-09-12T05:09:36.839Z,76.90
2022-09-12T05:12:05.746Z,76.80
2022-09-12T05:14:33.843Z,77.10
2022-09-12T05:17:02.424Z,77.10
2022-09-12T05:19:30.640Z,77.10
2022-09-12T05:21:58.936Z,77.20
2022-09-12T05:24:26.398Z,77.10
2022-09-12T05:26:53.786Z,77.10
2022-09-12T05:29:21.204Z,76.80
2022-09-12T05:31:52.013Z,76.90
2022-09-12T05:34:20.403Z,77.20
2022-09-12T05:36:47.842Z,77.10
2022-09-12T05:39:15.219Z,77.00
2022-09-12T05:41:42.575Z,77.10
2022-09-12T05:44:14.011Z,77.20
2022-09-12T05:46:44.882Z,77.40
2022-09-12T05:49:13.424Z,77.50
2022-09-12T05:51:43.873Z,77.60
2022-09-12T05:54:13.634Z,77.50
2022-09-12T05:56:43.870Z,77.50
2022-09-12T05:59:14.591Z,77.50
2022-09-12T06:01:42.334Z,77.30
2022-09-12T06:04:10.591Z,77.40
2022-09-12T06:06:45.555Z,77.40
2022-09-12T06:09:15.093Z,77.50
2022-09-12T06:11:43.582Z,77.40
2022-09-12T06:14:12.922Z,77.50
2022-09-12T06:16:40.679Z,77.40
2022-09-12T06:19:23.733Z,77.50
2022-09-12T06:21:51.525Z,77.50
2022-09-12T06:24:20.074Z,77.50
2022-09-12T06:26:48.539Z,77.40
2022-09-12T06:29:16.568Z,77.40
2022-09-12T06:31:45.400Z,77.30
2022-09-12T06:34:15.213Z,76.90
2022-09-12T06:36:47.922Z,77.00
2022-09-12T06:39:18.846Z,77.00
2022-09-12T06:41:46.904Z,77.00
2022-09-12T06:44:16.965Z,77.10
2022-09-12T06:46:44.846Z,77.00
2022-09-12T06:49:12.612Z,77.00
2022-09-12T06:51:44.488Z,76.60
2022-09-12T06:54:14.109Z,76.50
2022-09-12T06:56:41.562Z,76.10
2022-09-12T06:59:09.034Z,76.10
2022-09-12T07:01:36.625Z,75.80
2022-09-12T07:04:05.190Z,76.00
2022-09-12T07:06:38.499Z,76.00
2022-09-12T07:09:08.198Z,76.10
2022-09-12T07:11:37.975Z,76.00
2022-09-12T07:14:07.887Z,75.60
2022-09-12T07:16:36.606Z,75.60
2022-09-12T07:19:07.118Z,75.80
2022-09-12T07:21:39.456Z,76.50
2022-09-12T07:24:09.390Z,75.50
2022-09-12T07:26:38.059Z,75.30
2022-09-12T07:29:34.808Z,75.30
2022-09-12T07:31:53.455Z,75.10
2022-09-12T07:34:20.940Z,75.10
2022-09-12T07:36:48.546Z,74.60
2022-09-12T07:39:16.195Z,74.20
2022-09-12T07:41:43.556Z,74.00
2022-09-12T07:44:11.200Z,73.80
2022-09-12T07:46:40.012Z,73.80
2022-09-12T07:49:08.473Z,73.80
2022-09-12T07:51:36.201Z,74.00
2022-09-12T07:54:09.011Z,74.20
2022-09-12T07:56:39.152Z,74.00
2022-09-12T07:59:08.484Z,74.20
2022-09-12T08:01:36.236Z,74.10
2022-09-12T08:04:05.072Z,73.90
2022-09-12T08:06:35.839Z,73.80
2022-09-12T08:09:04.263Z,73.60
2022-09-12T08:11:31.896Z,73.70
2022-09-12T08:13:59.996Z,73.70
2022-09-12T08:16:30.264Z,74.00
2022-09-12T08:18:59.751Z,73.80
2022-09-12T08:21:29.317Z,73.60
2022-09-12T08:24:00.778Z,72.40
2022-09-12T08:26:28.539Z,72.50
2022-09-12T08:28:56.800Z,72.50
2022-09-12T08:31:26.950Z,72.00
2022-09-12T08:33:57.951Z,70.60
2022-09-12T08:36:27.742Z,69.50
2022-09-12T08:39:00.659Z,69.10
2022-09-12T08:41:35.821Z,67.70
2022-09-12T08:44:41.192Z,66.10
2022-09-12T08:47:41.558Z,63.90
2022-09-12T08:50:12.156Z,63.50
2022-09-12T08:52:58.376Z,62.20
2022-09-12T08:55:59.091Z,60.10
2022-09-12T08:58:29.027Z,58.50
2022-09-12T09:01:02.099Z,57.90
2022-09-12T09:04:10.875Z,57.60
2022-09-12T09:07:07.759Z,56.40
2022-09-12T09:09:59.147Z,55.30
2022-09-12T09:13:00.756Z,53.30
2022-09-12T09:15:52.231Z,53.20
2022-09-12T09:18:28.821Z,51.10
2022-09-12T09:21:00.168Z,50.60
2022-09-12T09:23:45.666Z,50.50
2022-09-12T09:26:26.608Z,49.60
2022-09-12T09:29:07.568Z,49.50
2022-09-12T09:31:39.615Z,49.20
2022-09-12T09:34:18.556Z,48.50
2022-09-12T09:37:08.654Z,47.90
2022-09-12T09:40:01.740Z,48.00
2022-09-12T09:42:32.436Z,48.00
2022-09-12T09:45:02.859Z,48.70
2022-09-12T09:47:30.710Z,48.10
2022-09-12T09:49:58.119Z,47.60
2022-09-12T09:52:30.912Z,47.80
2022-09-12T09:55:01.539Z,47.40
2022-09-12T09:57:35.859Z,47.40
2022-09-12T10:00:30.485Z,47.50
2022-09-12T10:03:13.848Z,47.50
2022-09-12T10:05:48.552Z,47.80
2022-09-12T10:08:28.942Z,47.60
2022-09-12T10:10:59.304Z,48.00
2022-09-12T10:13:42.934Z,47.90
2022-09-12T10:16:20.908Z,48.50
2022-09-12T10:18:53.312Z,48.60
2022-09-12T10:21:29.643Z,49.30
2022-09-12T10:24:05.744Z,49.70
2022-09-12T10:26:37.488Z,49.60
2022-09-12T10:29:23.949Z,49.40
2022-09-12T10:31:57.507Z,49.30
2022-09-12T10:34:34.284Z,49.50
2022-09-12T10:37:21.777Z,48.50
2022-09-12T10:39:57.002Z,48.70
2022-09-12T10:42:53.588Z,48.90
2022-09-12T10:45:32.114Z,48.40
2022-09-12T10:48:06.847Z,47.90
2022-09-12T10:50:42.400Z,48.60
2022-09-12T10:53:23.341Z,48.70
2022-09-12T10:56:18.762Z,49.70
2022-09-12T10:59:20.107Z,49.60
2022-09-12T11:02:14.484Z,49.80
2022-09-12T11:05:09.335Z,48.90
2022-09-12T11:07:43.811Z,48.80
2022-09-12T11:10:19.821Z,48.80
2022-09-12T11:12:56.360Z,49.10
2022-09-12T11:16:05.819Z,48.90
2022-09-12T11:18:53.446Z,48.50
2022-09-12T11:21:59.900Z,47.90
2022-09-12T11:25:13.492Z,48.30
2022-09-12T11:28:10.368Z,48.40
2022-09-12T11:31:04.554Z,47.00
2022-09-12T11:33:50.471Z,47.50
2022-09-12T11:36:39.062Z,47.40
2022-09-12T11:39:40.165Z,48.40
2022-09-12T11:45:26.682Z,47.10
2022-09-12T11:47:58.748Z,46.80
2022-09-12T11:50:31.298Z,46.90
2022-09-12T11:53:23.408Z,46.00
2022-09-12T11:56:02.079Z,46.80
2022-09-12T11:58:29.672Z,46.30
2022-09-12T12:01:20.885Z,45.70
2022-09-12T12:03:49.177Z,45.50
2022-09-12T12:06:30.136Z,45.60
2022-09-12T12:08:57.748Z,45.50
2022-09-12T12:11:42.655Z,44.20
2022-09-12T12:14:21.892Z,45.00
2022-09-12T12:16:50.186Z,44.60
2022-09-12T12:19:17.425Z,44.80
2022-09-12T12:21:45.721Z,45.10
2022-09-12T12:24:15.456Z,45.30
2022-09-12T12:26:54.660Z,44.70
2022-09-12T12:29:23.193Z,44.80
2022-09-12T12:32:16.683Z,44.50
2022-09-12T12:34:46.270Z,45.10
2022-09-12T12:37:20.020Z,44.10
2022-09-12T12:39:51.334Z,44.00
2022-09-12T12:42:37.304Z,44.50
2022-09-12T12:45:29.378Z,44.10
2022-09-12T12:48:11.127Z,43.80
2022-09-12T12:50:39.304Z,43.60
2022-09-12T12:53:27.794Z,43.90
2022-09-12T12:55:57.131Z,44.10
2022-09-12T12:58:37.578Z,44.60
2022-09-12T13:01:17.980Z,44.20
2022-09-12T13:03:59.614Z,44.50
2022-09-12T13:07:07.951Z,44.90
2022-09-12T13:09:45.895Z,46.00
2022-09-12T13:12:21.680Z,45.50
2022-09-12T13:14:52.846Z,44.60
2022-09-12T13:17:26.166Z,45.70
2022-09-12T13:20:28.215Z,44.50
2022-09-12T13:22:57.660Z,43.70
2022-09-12T13:25:35.077Z,43.90
2022-09-12T13:28:06.997Z,44.40
2022-09-12T13:30:37.614Z,44.80
2022-09-12T13:33:39.176Z,44.30
2022-09-12T13:36:37.364Z,44.60
2022-09-12T13:39:21.244Z,43.60
2022-09-12T13:42:32.953Z,44.10
2022-09-12T13:45:21.073Z,44.60
2022-09-12T13:48:01.913Z,44.10
2022-09-12T13:50:39.196Z,44.20
2022-09-12T13:53:22.297Z,44.40
2022-09-12T13:55:56.959Z,44.70
2022-09-12T13:58:26.268Z,44.80
2022-09-12T14:01:07.742Z,44.50
2022-09-12T14:04:00.112Z,44.40
2022-09-12T14:06:27.722Z,44.10
2022-09-12T14:09:01.469Z,44.90
2022-09-12T14:11:33.728Z,44.40
2022-09-12T14:14:06.503Z,44.40
2022-09-12T14:16:39.582Z,44.10
2022-09-12T14:19:10.130Z,44.90
2022-09-12T14:21:38.315Z,45.50
2022-09-12T14:24:08.499Z,45.00
2022-09-12T14:26:40.176Z,45.20
2022-09-12T14:29:08.719Z,45.50
2022-09-12T14:31:38.412Z,45.50
2022-09-12T14:34:17.921Z,45.00
2022-09-12T14:36:55.860Z,44.90
2022-09-12T14:39:43.526Z,45.40
2022-09-12T14:42:15.919Z,45.20
2022-09-12T14:45:14.079Z,45.00
2022-09-12T14:47:44.329Z,44.80
2022-09-12T14:50:18.990Z,44.60
2022-09-12T14:52:46.417Z,45.20
2022-09-12T14:55:16.610Z,44.80
2022-09-12T14:57:45.072Z,44.60
2022-09-12T15:00:12.399Z,44.70
2022-09-12T15:02:44.924Z,44.50
2022-09-12T15:05:12.194Z,44.70
2022-09-12T15:07:42.394Z,44.80
2022-09-12T15:10:25.237Z,45.00
2022-09-12T15:13:05.788Z,46.00
2022-09-12T15:15:33.190Z,45.40
2022-09-12T15:18:04.598Z,45.10
2022-09-12T15:20:37.340Z,45.10
2022-09-12T15:23:07.626Z,45.40
2022-09-12T15:25:34.933Z,45.30
2022-09-12T15:28:13.368Z,45.40
2022-09-12T15:30:40.919Z,45.20
2022-09-12T15:33:10.440Z,44.90
2022-09-12T15:35:37.997Z,45.20
2022-09-12T15:38:05.527Z,45.40
2022-09-12T15:40:32.987Z,45.30
2022-09-12T15:43:00.638Z,45.50
2022-09-12T15:45:31.522Z,45.70
2022-09-12T15:47:59.564Z,45.60
2022-09-12T15:50:28.047Z,45.70
2022-09-12T15:52:55.889Z,45.50
2022-09-12T15:55:29.906Z,45.30
2022-09-12T15:57:57.144Z,45.80
2022-09-12T16:00:24.848Z,45.90
2022-09-12T16:02:53.277Z,45.70
2022-09-12T16:05:25.010Z,45.90
2022-09-12T16:07:54.240Z,46.60
2022-09-12T16:10:25.761Z,46.10
2022-09-12T16:12:54.748Z,45.70
2022-09-12T16:15:24.960Z,45.40
2022-09-12T16:17:52.895Z,46.00
2022-09-12T16:20:21.471Z,46.20
2022-09-12T16:22:49.367Z,46.40
2022-09-12T16:25:17.601Z,46.60
2022-09-12T16:27:45.951Z,46.10
2022-09-12T16:30:13.750Z,47.10
2022-09-12T16:32:41.228Z,47.00
2022-09-12T16:35:09.596Z,47.10
2022-09-12T16:37:37.943Z,47.30
2022-09-12T16:40:06.141Z,47.30
2022-09-12T16:42:33.589Z,47.40
2022-09-12T16:45:01.087Z,47.30
2022-09-12T16:47:32.099Z,47.00
2022-09-12T16:49:59.569Z,47.40
2022-09-12T16:52:27.126Z,47.90
2022-09-12T16:54:54.586Z,47.90
2022-09-12T16:57:22.782Z,48.10
2022-09-12T16:59:50.656Z,49.00
2022-09-12T17:02:18.153Z,48.80
2022-09-12T17:04:45.507Z,49.40
2022-09-12T17:07:12.735Z,49.90
2022-09-12T17:09:40.403Z,49.70
2022-09-12T17:12:07.670Z,49.90
2022-09-12T17:14:35.168Z,49.90
2022-09-12T17:17:02.644Z,50.10
2022-09-12T17:19:30.304Z,50.60
2022-09-12T17:21:58.176Z,50.80
2022-09-12T17:24:25.881Z,51.10
2022-09-12T17:26:54.112Z,51.20
2022-09-12T17:29:21.670Z,51.90
2022-09-12T17:31:49.198Z,52.50
2022-09-12T17:34:17.646Z,52.70
2022-09-12T17:36:48.167Z,53.60
2022-09-12T17:39:15.806Z,53.50
2022-09-12T17:41:43.866Z,54.60
2022-09-12T17:44:12.834Z,54.90
2022-09-12T17:46:40.671Z,55.30
2022-09-12T17:49:13.214Z,55.50
2022-09-12T17:51:40.964Z,55.90
2022-09-12T17:54:12.110Z,56.20
2022-09-12T17:56:39.684Z,56.80
2022-09-12T17:59:08.587Z,56.60
2022-09-12T18:02:14.549Z,56.90
2022-09-12T18:04:47.404Z,57.40
2022-09-12T18:07:18.106Z,58.00
2022-09-12T18:09:50.059Z,57.90
2022-09-12T18:12:19.951Z,58.20
2022-09-12T18:14:47.208Z,58.50
2022-09-12T18:17:14.939Z,58.90
2022-09-12T18:19:42.323Z,59.30
2022-09-12T18:22:09.782Z,59.10
2022-09-12T18:24:37.159Z,59.10
2022-09-12T18:27:04.660Z,59.10
2022-09-12T18:29:31.954Z,59.40
2022-09-12T18:31:59.284Z,59.60
2022-09-12T18:34:27.027Z,60.10
2022-09-12T18:36:54.955Z,60.50
2022-09-12T18:39:27.312Z,60.30
2022-09-12T18:41:55.216Z,60.50
2022-09-12T18:44:22.531Z,60.70
2022-09-12T18:46:49.954Z,60.70
2022-09-12T18:49:17.239Z,61.00
2022-09-12T18:51:44.849Z,61.00
2022-09-12T18:54:14.166Z,61.40
2022-09-12T18:56:43.736Z,61.90
2022-09-12T18:59:14.094Z,62.20
2022-09-12T19:01:42.743Z,61.50
2022-09-12T19:04:11.973Z,61.80
2022-09-12T19:06:48.261Z,63.00
2022-09-12T19:09:18.171Z,62.70
2022-09-12T19:11:50.226Z,62.30
2022-09-12T19:14:20.604Z,62.40
2022-09-12T19:16:48.345Z,62.60
2022-09-12T19:19:15.958Z,62.70
2022-09-12T19:21:43.185Z,62.90
2022-09-12T19:24:10.764Z,63.00
2022-09-12T19:26:39.458Z,63.30
2022-09-12T19:29:07.789Z,63.00
2022-09-12T19:31:35.269Z,63.00
2022-09-12T19:34:04.526Z,63.30
2022-09-12T19:36:47.775Z,63.40
2022-09-12T19:39:17.114Z,63.70
2022-09-12T19:41:45.044Z,63.80
2022-09-12T19:44:12.730Z,64.00
2022-09-12T19:46:40.348Z,64.20
2022-09-12T19:49:10.146Z,64.40
2022-09-12T19:51:37.736Z,64.50
2022-09-12T19:54:05.957Z,64.50
2022-09-12T19:56:33.244Z,64.50
2022-09-12T19:59:00.426Z,64.50
2022-09-12T20:01:28.653Z,64.30
2022-09-12T20:03:57.558Z,64.80
2022-09-12T20:06:26.244Z,64.80
2022-09-12T20:08:54.083Z,64.80
2022-09-12T20:11:23.260Z,64.50
2022-09-12T20:13:51.336Z,64.70
2022-09-12T20:16:25.487Z,64.60
2022-09-12T20:18:55.033Z,64.70
2022-09-12T20:21:25.721Z,65.00
2022-09-12T20:23:53.102Z,65.30
2022-09-12T20:26:20.596Z,65.30
2022-09-12T20:28:48.076Z,65.40
2022-09-12T20:31:16.559Z,65.20
2022-09-12T20:33:47.536Z,65.50
2022-09-12T20:36:20.526Z,65.50
2022-09-12T20:38:53.408Z,65.70
2022-09-12T20:41:21.440Z,65.70
2022-09-12T20:43:56.365Z,65.60
2022-09-12T20:46:24.959Z,66.00
2022-09-12T20:48:52.395Z,65.70
2022-09-12T20:51:26.419Z,65.70
2022-09-12T20:53:54.934Z,67.50
2022-09-12T20:56:24.086Z,66.50
2022-09-12T20:58:51.352Z,66.50
2022-09-12T21:01:23.330Z,66.30
2022-09-12T21:03:50.779Z,66.60
2022-09-12T21:06:18.536Z,66.50
2022-09-12T21:08:48.103Z,66.50
2022-09-12T21:11:16.084Z,66.80
2022-09-12T21:13:43.724Z,67.00
2022-09-12T21:16:12.562Z,67.80
2022-09-12T21:18:41.527Z,67.10
2022-09-12T21:21:10.600Z,67.00
2022-09-12T21:23:38.166Z,67.00
2022-09-12T21:26:05.819Z,67.10
2022-09-12T21:28:33.843Z,66.90
2022-09-12T21:31:01.318Z,67.10
2022-09-12T21:33:28.717Z,67.30
2022-09-12T21:36:00.596Z,67.50
2022-09-12T21:38:27.798Z,67.50
2022-09-12T21:41:06.876Z,67.50
2022-09-12T21:43:34.627Z,67.70
2022-09-12T21:46:02.419Z,67.50
2022-09-12T21:48:30.538Z,67.60
2022-09-12T21:50:58.221Z,67.90
2022-09-12T21:53:26.027Z,68.00
2022-09-12T21:55:53.389Z,68.00
2022-09-12T21:58:20.785Z,67.90
2022-09-12T22:00:48.337Z,67.90
2022-09-12T22:03:16.993Z,68.50
2022-09-12T22:05:44.412Z,68.70
2022-09-12T22:08:12.111Z,68.60
2022-09-12T22:10:40.126Z,68.30
2022-09-12T22:13:07.287Z,68.40
2022-09-12T22:15:41.828Z,68.60
2022-09-12T22:18:09.063Z,68.70
2022-09-12T22:20:36.578Z,68.80
2022-09-12T22:23:25.066Z,69.20
2022-09-12T22:25:55.063Z,68.90
2022-09-12T22:28:23.112Z,69.00
2022-09-12T22:30:52.432Z,69.30
2022-09-12T22:33:19.879Z,69.30
2022-09-12T22:35:48.272Z,69.90
2022-09-12T22:38:15.658Z,70.50
2022-09-12T22:40:43.767Z,70.40
2022-09-12T22:43:11.746Z,70.10
2022-09-12T22:45:41.721Z,70.00
2022-09-12T22:48:09.432Z,70.00
2022-09-12T22:50:37.218Z,70.10
2022-09-12T22:53:04.624Z,70.10
2022-09-12T22:55:32.241Z,70.00
2022-09-12T22:57:59.708Z,70.20
2022-09-12T23:00:27.951Z,70.00
2022-09-12T23:02:56.194Z,69.90
2022-09-12T23:05:23.843Z,69.90
2022-09-12T23:07:51.622Z,69.80
2022-09-12T23:10:19.252Z,70.00
2022-09-12T23:12:46.568Z,70.00
2022-09-12T23:15:14.763Z,69.90
2022-09-12T23:17:42.181Z,70.20
2022-09-12T23:20:09.795Z,70.40
2022-09-12T23:22:37.320Z,70.40
2022-09-12T23:25:05.377Z,70.60
2022-09-12T23:27:32.772Z,70.80
2022-09-12T23:30:00.248Z,70.80
2022-09-12T23:32:28.288Z,70.70
2022-09-12T23:34:55.653Z,70.50
2022-09-12T23:37:23.139Z,70.60
2022-09-12T23:39:50.863Z,70.70
2022-09-12T23:42:18.245Z,70.80
2022-09-12T23:44:45.650Z,70.80
2022-09-12T23:47:13.048Z,71.20
2022-09-12T23:49:40.694Z,71.00
2022-09-12T23:52:07.936Z,71.10
2022-09-12T23:54:36.946Z,70.90
2022-09-12T23:57:04.280Z,70.80
2022-09-12T23:59:31.451Z,70.80
